createdAt,value
2018-08-27T00:03:13.170Z,9.35
2018-08-27T00:14:15.229Z,9.55
2018-08-27T00:25:17.347Z,9.16
2018-08-27T00:36:18.487Z,9.26
2018-08-27T00:47:20.157Z,9.65
2018-08-27T00:58:20.963Z,9.45
2018-08-27T01:09:22.527Z,9.35
2018-08-27T01:20:24.997Z,9.65
2018-08-27T01:31:27.429Z,9.55
2018-08-27T01:42:29.375Z,9.06
2018-08-27T01:53:31.772Z,9.25
2018-08-27T02:04:34.421Z,9.26
2018-08-27T02:15:37.984Z,8.96
2018-08-27T02:26:38.597Z,8.57
2018-08-27T02:37:39.643Z,8.57
2018-08-27T02:48:41.185Z,8.28
2018-08-27T02:59:43.070Z,8.18
2018-08-27T03:10:44.748Z,8.08
2018-08-27T03:21:47.234Z,8.18
2018-08-27T03:32:48.029Z,8.28
2018-08-27T03:43:50.217Z,8.77
2018-08-27T03:54:52.281Z,8.67
2018-08-27T04:05:54.959Z,8.77
2018-08-27T04:16:57.567Z,8.86
2018-08-27T04:27:58.513Z,8.86
2018-08-27T04:39:00.302Z,8.77
2018-08-27T04:50:02.132Z,8.67
2018-08-27T05:01:04.100Z,8.76
2018-08-27T05:12:05.620Z,9.06
2018-08-27T05:23:08.328Z,9.16
2018-08-27T05:34:04.431Z,9.35
2018-08-27T05:45:07.573Z,9.55
2018-08-27T05:56:09.023Z,10.04
2018-08-27T06:07:08.133Z,10.72
2018-08-27T06:18:06.288Z,11.11
2018-08-27T06:29:07.802Z,11.60
2018-08-27T06:40:00.247Z,11.89
2018-08-27T06:51:03.134Z,12.68
2018-08-27T07:02:06.111Z,13.17
2018-08-27T07:12:46.465Z,13.56
2018-08-27T07:23:46.596Z,14.34
2018-08-27T07:34:49.947Z,14.73
2018-08-27T07:45:51.915Z,15.22
2018-08-27T07:56:54.396Z,15.61
2018-08-27T08:07:55.863Z,16.00
2018-08-27T08:18:58.083Z,16.20
2018-08-27T08:29:59.546Z,16.49
2018-08-27T08:40:54.766Z,16.69
2018-08-27T08:51:57.731Z,16.88
2018-08-27T09:02:59.558Z,17.08
2018-08-27T09:14:00.199Z,17.27
2018-08-27T09:25:02.919Z,17.66
2018-08-27T09:36:04.392Z,18.25
2018-08-27T09:47:05.983Z,18.25
2018-08-27T09:58:08.171Z,18.84
2018-08-27T10:09:10.936Z,19.13
2018-08-27T10:19:54.103Z,19.23
2018-08-27T10:30:37.829Z,19.91
2018-08-27T10:41:21.087Z,20.21
2018-08-27T10:52:05.442Z,20.50
2018-08-27T11:02:49.671Z,20.60
2018-08-27T11:13:32.765Z,21.48
2018-08-27T11:24:35.861Z,21.68
2018-08-27T11:35:37.977Z,22.56
2018-08-27T11:46:17.472Z,23.73
2018-08-27T11:57:01.165Z,24.22
2018-08-27T12:08:02.960Z,23.04
2018-08-27T12:19:04.064Z,22.95
2018-08-27T12:29:44.880Z,22.95
2018-08-27T12:40:27.205Z,23.04
2018-08-27T12:51:29.762Z,23.44
2018-08-27T13:02:11.711Z,23.63
2018-08-27T13:12:52.975Z,24.32
2018-08-27T13:23:38.427Z,26.47
2018-08-27T13:34:22.939Z,26.07
2018-08-27T13:45:09.892Z,26.56
2018-08-27T13:55:55.613Z,28.13
2018-08-27T14:06:40.413Z,27.84
2018-08-27T14:17:24.042Z,28.52
2018-08-27T14:28:09.287Z,27.44
2018-08-27T14:39:14.661Z,27.93
2018-08-27T14:50:00.030Z,28.03
2018-08-27T15:00:59.477Z,26.07
2018-08-27T15:12:02.095Z,24.51
2018-08-27T15:22:39.166Z,23.53
2018-08-27T15:33:29.052Z,23.93
2018-08-27T15:44:27.342Z,23.44
2018-08-27T15:55:24.868Z,23.24
2018-08-27T16:06:18.045Z,22.26
2018-08-27T16:17:17.019Z,21.29
2018-08-27T16:28:16.741Z,20.80
2018-08-27T16:39:17.588Z,20.80
2018-08-27T16:50:18.029Z,20.50
2018-08-27T17:01:18.550Z,19.92
2018-08-27T17:12:17.893Z,18.74
2018-08-27T17:23:15.474Z,17.66
2018-08-27T17:34:15.468Z,16.98
2018-08-27T17:45:12.721Z,16.49
2018-08-27T17:56:12.162Z,16.00
2018-08-27T18:07:09.843Z,15.71
2018-08-27T18:18:09.771Z,15.42
2018-08-27T18:29:08.051Z,15.03
2018-08-27T18:40:07.242Z,14.63
2018-08-27T18:51:07.373Z,14.34
2018-08-27T19:02:08.108Z,14.05
2018-08-27T19:13:06.460Z,13.85
2018-08-27T19:24:05.922Z,13.56
2018-08-27T19:35:05.639Z,13.36
2018-08-27T19:46:06.730Z,13.26
2018-08-27T19:57:09.329Z,13.17
2018-08-27T20:08:10.926Z,12.97
2018-08-27T20:19:12.402Z,12.87
2018-08-27T20:30:13.779Z,12.68
2018-08-27T20:41:15.382Z,12.68
2018-08-27T20:52:16.602Z,12.38
2018-08-27T21:03:16.927Z,12.29
2018-08-27T21:14:17.451Z,12.29
2018-08-27T21:25:16.085Z,12.19
2018-08-27T21:36:15.754Z,12.09
2018-08-27T21:47:16.273Z,11.89
2018-08-27T21:58:17.065Z,11.89
2018-08-27T22:09:18.160Z,11.80
2018-08-27T22:20:20.229Z,11.70
2018-08-27T22:31:21.585Z,11.60
2018-08-27T22:42:23.113Z,11.70
2018-08-27T22:53:24.274Z,11.50
2018-08-27T23:04:25.081Z,11.60
2018-08-27T23:15:26.997Z,11.31
2018-08-27T23:26:28.345Z,11.11
2018-08-27T23:37:28.075Z,11.11
2018-08-27T23:48:29.396Z,11.11
2018-08-27T23:59:31.085Z,11.11
